Time;durP1;ratioP1;P1;durP2;ratioP2;P2;SDS_P1;SDS_P2;PMS_P1;PMS_P2;Temp;Humidity;BMP_temperature;BMP_pressure;BME280_temperature;BME280_humidity;BME280_pressure;Samples;Min_cycle;Max_cycle;Signal;HPM_P1;HPM_P2
2022/12/21 00:02:05;;;;;;;153.78;75.32;;;;;;;-2.20;91.67;101326.23;1469884;88;21525;-82
2022/12/21 00:04:32;;;;;;;144.72;77.32;;;;;;;-2.22;91.75;101309.01;1465427;88;21414;-82
2022/12/21 00:06:58;;;;;;;144.17;74.60;;;;;;;-2.23;91.57;101322.88;1468189;88;21422;-83
2022/12/21 00:09:24;;;;;;;158.80;74.58;;;;;;;-2.29;92.72;101323.45;1468609;88;21333;-82
2022/12/21 00:11:50;;;;;;;145.65;74.25;;;;;;;-2.34;92.68;101332.25;1476183;88;21455;-82
2022/12/21 00:14:17;;;;;;;148.35;72.97;;;;;;;-2.35;92.89;101331.41;1471313;88;21407;-82
2022/12/21 00:16:43;;;;;;;147.43;73.05;;;;;;;-2.35;92.35;101331.41;1470662;88;21481;-83
2022/12/21 00:19:17;;;;;;;149.68;72.22;;;;;;;-2.38;93.11;101330.20;1471795;88;21289;-82
2022/12/21 00:21:43;;;;;;;140.97;74.15;;;;;;;-2.38;92.43;101330.20;1473772;88;21297;-83
2022/12/21 00:24:09;;;;;;;140.30;70.97;;;;;;;-2.37;92.29;101331.05;1470457;88;21414;-83
2022/12/21 00:26:38;;;;;;;137.30;69.45;;;;;;;-2.41;92.67;101328.99;1473604;88;21495;-84
2022/12/21 00:29:05;;;;;;;134.25;67.97;;;;;;;-2.40;92.27;101333.73;1457623;88;21451;-82
2022/12/21 00:31:39;;;;;;;141.85;68.57;;;;;;;-2.43;92.37;101338.55;1474949;88;21378;-80
2022/12/21 00:34:05;;;;;;;134.93;67.32;;;;;;;-2.44;92.53;101339.45;1466343;88;21443;-83
2022/12/21 00:36:32;;;;;;;130.05;67.25;;;;;;;-2.44;92.17;101343.80;1474082;88;21356;-83
2022/12/21 00:38:59;;;;;;;129.53;63.05;;;;;;;-2.46;92.17;101350.30;1469562;88;22412;-81
2022/12/21 00:41:27;;;;;;;137.35;69.95;;;;;;;-2.47;91.96;101343.42;1461205;88;21407;-84
2022/12/21 00:43:54;;;;;;;137.82;69.00;;;;;;;-2.48;91.80;101346.05;1473369;88;21482;-84
2022/12/21 00:46:25;;;;;;;150.40;68.83;;;;;;;-2.50;91.61;101335.73;1474998;88;21429;-84
2022/12/21 00:48:51;;;;;;;152.75;72.92;;;;;;;-2.52;91.71;101321.95;1478053;88;22251;-83
2022/12/21 00:51:22;;;;;;;139.28;68.42;;;;;;;-2.55;91.60;101319.45;1476292;88;21465;-83
2022/12/21 00:53:48;;;;;;;112.68;53.83;;;;;;;-2.57;91.42;101318.19;1465851;88;21378;-83
2022/12/21 00:56:15;;;;;;;128.87;67.12;;;;;;;-2.59;91.38;101307.45;1474295;88;21518;-82
2022/12/21 00:58:42;;;;;;;118.87;61.98;;;;;;;-2.64;91.58;101301.56;1472225;88;21341;-83
2022/12/21 01:01:22;;;;;;;121.33;64.07;;;;;;;-2.68;91.56;101303.38;1475112;88;21414;-83
2022/12/21 01:03:49;;;;;;;123.07;63.50;;;;;;;-2.68;91.48;101299.94;1477266;88;22287;-84
2022/12/21 01:06:22;;;;;;;123.28;64.85;;;;;;;-2.68;91.70;101302.53;1476604;88;21621;-81
2022/12/21 01:08:50;;;;;;;123.80;63.83;;;;;;;-2.70;91.82;101293.52;1477314;88;21356;-84
2022/12/21 01:11:19;;;;;;;149.87;71.80;;;;;;;-2.74;92.75;101290.59;1477189;88;22443;-83
2022/12/21 01:13:46;;;;;;;140.30;67.40;;;;;;;-2.77;93.09;101275.97;1478736;88;21439;-84
2022/12/21 01:16:17;;;;;;;131.07;67.90;;;;;;;-2.75;92.67;101271.60;1477932;88;21466;-84
2022/12/21 01:18:44;;;;;;;143.78;67.55;;;;;;;-2.76;92.65;101274.25;1478471;88;21496;-84
2022/12/21 01:21:26;;;;;;;139.32;69.35;;;;;;;-2.77;93.00;101273.38;1477338;88;21362;-83
2022/12/21 01:23:55;;;;;;;140.55;65.47;;;;;;;-2.76;92.55;101269.91;1469269;88;21348;-84
2022/12/21 01:26:22;;;;;;;140.12;67.03;;;;;;;-2.78;92.86;101273.44;1468413;88;21503;-84
2022/12/21 01:28:48;;;;;;;142.10;67.65;;;;;;;-2.79;92.88;101276.48;1478443;88;21340;-83
2022/12/21 01:31:15;;;;;;;140.18;69.47;;;;;;;-2.80;92.64;101272.16;1479061;88;22280;-82
2022/12/21 01:33:41;;;;;;;140.22;68.22;;;;;;;-2.78;92.54;101274.28;1478745;88;21399;-83
2022/12/21 01:36:12;;;;;;;144.70;68.57;;;;;;;-2.77;92.35;101274.67;1476909;88;21363;-85
2022/12/21 01:38:39;;;;;;;110.28;54.70;;;;;;;-2.79;92.24;101270.00;1473616;88;21614;-84
2022/12/21 01:41:08;;;;;;;136.57;67.87;;;;;;;-2.80;92.44;101264.39;1478567;88;22345;-84
2022/12/21 01:43:51;;;;;;;136.88;66.40;;;;;;;-2.82;92.51;101262.31;1473992;88;21303;-84
2022/12/21 01:46:38;;;;;;;129.55;64.07;;;;;;;-2.86;92.38;101264.56;1472251;88;21458;-84
2022/12/21 01:49:19;;;;;;;127.80;62.95;;;;;;;-2.88;92.17;101264.20;1475879;88;21399;-84
2022/12/21 01:51:55;;;;;;;97.70;48.50;;;;;;;-2.92;91.88;101255.67;1470657;88;21503;-84
2022/12/21 01:54:26;;;;;;;131.32;65.47;;;;;;;-2.98;92.79;101264.91;1474467;88;21437;-83
2022/12/21 01:56:57;;;;;;;108.97;60.23;;;;;;;-3.04;92.80;101256.85;1470990;88;22383;-83
2022/12/21 01:59:40;;;;;;;138.22;64.77;;;;;;;-3.09;93.80;101260.00;1466325;88;22214;-85
2022/12/21 02:02:15;;;;;;;131.32;61.90;;;;;;;-3.12;93.08;101241.11;1474453;88;21599;-85
2022/12/21 02:04:42;;;;;;;122.98;61.92;;;;;;;-3.13;92.84;101238.97;1475349;88;21525;-84
2022/12/21 02:07:08;;;;;;;125.53;61.35;;;;;;;-3.14;92.65;101235.95;1465225;88;21511;-84
2022/12/21 02:09:36;;;;;;;112.95;55.88;;;;;;;-3.14;92.50;101241.59;1474243;88;22847;-85
2022/12/21 02:12:09;;;;;;;120.57;60.35;;;;;;;-3.19;93.13;101239.14;1473516;88;21460;-84
2022/12/21 02:14:39;;;;;;;120.02;58.95;;;;;;;-3.20;92.86;101238.27;1470251;88;21532;-84
2022/12/21 02:17:29;;;;;;;104.60;56.90;;;;;;;-3.23;93.17;101238.34;1476789;88;21473;-82
2022/12/21 02:20:42;;;;;;;107.47;53.20;;;;;;;-3.26;93.71;101228.07;1469112;88;21599;-82
2022/12/21 02:23:19;;;;;;;99.83;51.98;;;;;;;-3.27;93.47;101221.20;1472827;88;21435;-83
2022/12/21 02:26:06;;;;;;;107.70;54.50;;;;;;;-3.28;93.05;101214.34;1476101;88;21370;-84
2022/12/21 02:29:11;;;;;;;115.92;58.17;;;;;;;-3.29;92.68;101211.78;1469883;88;21377;-82
2022/12/21 02:31:57;;;;;;;115.77;58.35;;;;;;;-3.34;92.69;101217.06;1475215;88;21531;-85
2022/12/21 02:34:47;;;;;;;108.87;53.75;;;;;;;-3.40;92.48;101211.59;1454267;88;21517;-83
2022/12/21 02:37:33;;;;;;;94.65;51.18;;;;;;;-3.42;93.18;101206.08;1476795;88;22517;-83
2022/12/21 02:40:07;;;;;;;108.22;54.23;;;;;;;-3.44;93.32;101197.50;1478267;88;22816;-83
2022/12/21 02:45:56;;;;;;;102.87;54.27;;;;;;;-3.44;93.34;101192.32;1472769;88;21407;-81
2022/12/21 02:48:52;;;;;;;99.95;52.40;;;;;;;-3.43;93.46;101200.48;1474127;88;21385;-83
2022/12/21 02:51:27;;;;;;;99.90;52.70;;;;;;;-3.39;93.51;101203.41;1435092;91;21456;-83
2022/12/21 02:53:55;;;;;;;109.57;54.63;;;;;;;-3.34;93.42;101205.86;1475300;88;21406;-83
2022/12/21 02:56:21;;;;;;;90.65;49.10;;;;;;;-3.34;93.59;101197.65;1473714;88;21304;-81
2022/12/21 02:58:48;;;;;;;109.80;55.20;;;;;;;-3.34;93.28;101198.94;1472426;88;21385;-82
2022/12/21 03:01:31;;;;;;;90.55;46.40;;;;;;;-3.33;93.09;101198.07;1476499;88;21377;-82
2022/12/21 03:04:41;;;;;;;105.07;51.53;;;;;;;-3.37;93.41;101198.18;1470875;88;21443;-82
2022/12/21 03:07:22;;;;;;;104.17;51.83;;;;;;;-3.41;93.62;101197.42;1475613;88;21437;-81
2022/12/21 03:10:12;;;;;;;83.80;46.15;;;;;;;-3.41;93.90;101196.97;1467879;88;21459;-83
2022/12/21 03:12:59;;;;;;;83.67;46.10;;;;;;;-3.39;93.44;101198.23;1454483;88;22301;-83
2022/12/21 03:15:58;;;;;;;89.65;47.75;;;;;;;-3.36;93.13;101185.21;1474842;88;21398;-83
2022/12/21 03:18:30;;;;;;;84.67;48.25;;;;;;;-3.34;92.86;101175.64;1477239;88;21898;-83
2022/12/21 03:21:07;;;;;;;96.70;51.23;;;;;;;-3.34;92.64;101173.05;1476175;88;21451;-83
2022/12/21 03:23:42;;;;;;;95.10;47.85;;;;;;;-3.37;92.92;101175.73;1476202;88;22294;-82
2022/12/21 03:26:14;;;;;;;91.37;47.62;;;;;;;-3.41;93.14;101168.95;1473430;88;21443;-82
2022/12/21 03:28:43;;;;;;;91.50;47.08;;;;;;;-3.42;93.29;101172.44;1470977;88;21429;-83
2022/12/21 03:31:23;;;;;;;105.00;54.88;;;;;;;-3.43;93.79;101163.80;1468689;88;21370;-81
2022/12/21 03:34:10;;;;;;;95.38;47.17;;;;;;;-3.46;94.02;101166.91;1484055;88;21362;-83
2022/12/21 03:37:10;;;;;;;98.15;52.17;;;;;;;-3.50;94.64;101175.66;1470061;88;21436;-83
2022/12/21 03:39:43;;;;;;;92.33;46.70;;;;;;;-3.54;94.99;101179.20;1476148;88;21385;-83
2022/12/21 03:42:20;;;;;;;105.10;52.25;;;;;;;-3.54;94.60;101168.43;1479699;88;21480;-81
2022/12/21 03:45:01;;;;;;;93.33;48.50;;;;;;;-3.54;94.37;101160.67;1483993;88;21414;-83
2022/12/21 03:47:41;;;;;;;88.82;48.05;;;;;;;-3.52;94.15;101157.58;1475703;88;22464;-81
2022/12/21 03:50:16;;;;;;;91.30;48.78;;;;;;;-3.54;94.05;101154.62;1472129;88;21370;-83
2022/12/21 03:53:06;;;;;;;96.28;47.73;;;;;;;-3.53;93.71;101160.22;1470822;88;21543;-81
2022/12/21 03:55:37;;;;;;;82.33;44.42;;;;;;;-3.56;93.31;101159.85;1474346;88;21413;-83
2022/12/21 03:58:05;;;;;;;73.60;37.90;;;;;;;-3.53;93.53;101153.30;1455176;88;21538;-83
2022/12/21 04:00:38;;;;;;;85.62;46.35;;;;;;;-3.58;93.67;101146.55;1474182;88;21422;-82
2022/12/21 04:03:24;;;;;;;93.97;48.13;;;;;;;-3.58;93.60;101149.13;1469127;88;21443;-82
2022/12/21 04:05:56;;;;;;;85.55;44.67;;;;;;;-3.60;93.18;101148.31;1465370;88;21370;-82
2022/12/21 04:08:24;;;;;;;86.87;45.87;;;;;;;-3.66;92.88;101156.63;1470860;88;21576;-82
2022/12/21 04:10:51;;;;;;;82.12;44.60;;;;;;;-3.74;93.25;101159.01;1472803;88;22220;-83
2022/12/21 04:13:17;;;;;;;103.97;48.20;;;;;;;-3.80;92.89;101161.30;1474097;88;21423;-81
2022/12/21 04:21:14;;;;;;;80.07;44.03;;;;;;;-3.84;93.54;101157.11;1476091;88;21340;-81
2022/12/21 04:29:10;;;;;;;87.47;45.25;;;;;;;-3.91;93.75;101156.42;1476680;88;21312;-82
2022/12/21 04:31:36;;;;;;;81.30;43.23;;;;;;;-3.91;93.98;101154.28;1470032;88;21578;-81
2022/12/21 04:34:02;;;;;;;89.17;45.60;;;;;;;-3.93;94.42;101143.13;1468423;88;22353;-81
2022/12/21 04:39:14;;;;;;;95.47;46.45;;;;;;;-3.94;93.42;101138.39;1476265;88;21319;-83
2022/12/21 04:41:40;;;;;;;89.77;46.18;;;;;;;-3.96;92.91;101145.33;1469171;88;21551;-83
2022/12/21 04:44:06;;;;;;;87.17;48.65;;;;;;;-3.96;92.97;101141.91;1467654;88;21481;-82
2022/12/21 04:46:32;;;;;;;91.30;47.17;;;;;;;-3.93;93.15;101137.95;1471992;88;21481;-81
2022/12/21 04:48:58;;;;;;;88.70;46.23;;;;;;;-3.93;92.87;101140.53;1478772;88;21355;-81
2022/12/21 04:51:25;;;;;;;85.85;48.70;;;;;;;-3.95;92.84;101137.97;1473576;88;22458;-83
2022/12/21 04:53:53;;;;;;;97.53;49.18;;;;;;;-3.97;92.72;101135.02;1471680;88;21363;-82
2022/12/21 04:56:20;;;;;;;88.15;45.23;;;;;;;-4.03;92.91;101130.00;1475421;88;21305;-82
2022/12/21 04:58:46;;;;;;;97.33;51.35;;;;;;;-4.06;92.78;101138.67;1476837;88;21437;-81
2022/12/21 05:01:19;;;;;;;88.55;46.42;;;;;;;-4.08;92.88;101130.12;1475367;88;22406;-82
2022/12/21 05:03:46;;;;;;;86.65;48.38;;;;;;;-4.07;92.95;101126.64;1472401;88;21385;-82
2022/12/21 05:06:15;;;;;;;90.53;46.90;;;;;;;-4.12;93.29;101128.48;1468238;88;21544;-82
2022/12/21 05:08:41;;;;;;;91.05;46.08;;;;;;;-4.15;93.67;101115.19;1473597;88;21318;-81
2022/12/21 05:11:16;;;;;;;88.10;45.78;;;;;;;-4.14;93.26;101128.54;1475730;88;21496;-83
2022/12/21 05:13:42;;;;;;;85.53;48.05;;;;;;;-4.15;93.46;101125.53;1472819;88;21536;-84
2022/12/21 05:16:14;;;;;;;88.85;46.45;;;;;;;-4.15;93.17;101119.52;1472433;88;21333;-84
2022/12/21 05:18:41;;;;;;;98.55;47.93;;;;;;;-4.15;92.93;101122.10;1473469;88;22361;-82
2022/12/21 05:21:07;;;;;;;99.13;50.90;;;;;;;-4.20;93.04;101113.59;1469148;88;21341;-83
2022/12/21 05:23:33;;;;;;;95.47;49.20;;;;;;;-4.19;92.71;101120.48;1470776;88;21340;-84
2022/12/21 05:26:04;;;;;;;109.85;53.00;;;;;;;-4.26;93.09;101115.89;1469902;88;21436;-84
2022/12/21 05:28:44;;;;;;;147.02;54.48;;;;;;;-4.24;92.88;101120.59;1465337;88;22012;-84
2022/12/21 05:31:12;;;;;;;115.00;54.58;;;;;;;-4.24;93.47;101118.00;1476718;88;22903;-81
2022/12/21 05:33:38;;;;;;;106.67;50.38;;;;;;;-4.25;93.87;101111.14;1472434;88;21414;-83
2022/12/21 05:36:08;;;;;;;92.53;49.45;;;;;;;-4.24;93.51;101114.13;1474353;88;21659;-82
2022/12/21 05:38:34;;;;;;;102.67;49.53;;;;;;;-4.24;93.21;101115.42;1479475;88;21363;-83
2022/12/21 05:41:01;;;;;;;97.37;50.65;;;;;;;-4.25;92.81;101116.31;1472054;88;21392;-83
2022/12/21 05:43:27;;;;;;;100.22;48.90;;;;;;;-4.26;92.58;101109.42;1477224;88;21510;-87
2022/12/21 05:45:54;;;;;;;100.72;49.18;;;;;;;-4.29;92.98;101115.96;1478269;88;21326;-82
2022/12/21 05:48:20;;;;;;;106.45;50.67;;;;;;;-4.32;93.42;101111.71;1463200;88;21483;-82
2022/12/21 05:50:46;;;;;;;104.70;50.52;;;;;;;-4.34;92.71;101099.73;1476206;88;22473;-83
2022/12/21 05:53:12;;;;;;;104.43;52.80;;;;;;;-4.37;92.57;101115.32;1470780;88;21363;-82
2022/12/21 05:55:44;;;;;;;95.20;49.73;;;;;;;-4.42;93.51;101123.62;1470951;88;21378;-83
2022/12/21 05:58:12;;;;;;;93.00;48.42;;;;;;;-4.43;94.07;101122.77;1467429;88;21355;-83
2022/12/21 06:00:38;;;;;;;90.42;48.00;;;;;;;-4.42;93.90;101116.70;1475464;88;21532;-82
2022/12/21 06:03:04;;;;;;;98.15;49.25;;;;;;;-4.42;93.41;101118.45;1477445;88;21400;-83
2022/12/21 06:05:33;;;;;;;99.70;51.20;;;;;;;-4.42;93.43;101118.00;1474096;88;21311;-82
2022/12/21 06:07:59;;;;;;;102.85;47.43;;;;;;;-4.41;93.30;101125.30;1475645;88;21370;-84
2022/12/21 06:10:25;;;;;;;104.32;50.88;;;;;;;-4.44;93.18;101131.84;1478212;88;21326;-83
2022/12/21 06:12:51;;;;;;;104.23;49.18;;;;;;;-4.46;92.89;101127.14;1469325;88;21489;-83
2022/12/21 06:15:17;;;;;;;94.77;46.55;;;;;;;-4.46;93.04;101125.84;1477208;88;21356;-86
2022/12/21 06:17:43;;;;;;;93.78;47.62;;;;;;;-4.45;92.99;101124.53;1478064;88;21370;-83
2022/12/21 06:20:10;;;;;;;92.53;44.23;;;;;;;-4.46;93.07;101116.80;1474157;88;21536;-86
2022/12/21 06:22:37;;;;;;;95.92;50.00;;;;;;;-4.48;93.13;101121.17;1477906;88;21385;-85
2022/12/21 06:25:04;;;;;;;100.00;52.20;;;;;;;-4.48;92.91;101119.88;1475830;88;22228;-84
2022/12/21 06:27:30;;;;;;;107.45;54.10;;;;;;;-4.47;92.85;101123.70;1471891;88;21296;-88
2022/12/21 06:29:57;;;;;;;98.92;52.08;;;;;;;-4.49;93.62;101131.92;1474253;88;21547;-90
2022/12/21 06:32:23;;;;;;;90.53;46.13;;;;;;;-4.48;93.32;101123.77;1477279;88;21400;-87
2022/12/21 06:34:49;;;;;;;83.25;44.25;;;;;;;-4.44;93.11;101124.08;1473547;88;21451;-90
2022/12/21 06:37:15;;;;;;;91.70;45.00;;;;;;;-4.43;92.73;101112.85;1470737;88;22950;-92
2022/12/21 06:39:41;;;;;;;93.37;47.45;;;;;;;-4.44;92.21;101116.33;1465204;88;21606;-92
2022/12/21 06:42:07;;;;;;;95.00;44.35;;;;;;;-4.42;92.56;101111.98;1436090;88;21370;-89
2022/12/21 06:44:34;;;;;;;82.15;44.15;;;;;;;-4.40;92.66;101116.66;1453597;88;21371;-91
2022/12/21 06:47:00;;;;;;;84.87;43.75;;;;;;;-4.40;92.70;101118.83;1470085;88;21610;-91
2022/12/21 06:49:26;;;;;;;91.85;46.48;;;;;;;-4.32;92.99;101116.03;1468896;88;21422;-91
2022/12/21 06:51:52;;;;;;;89.77;44.95;;;;;;;-4.22;93.04;101112.36;1470158;88;21385;-90
2022/12/21 06:54:18;;;;;;;98.52;48.80;;;;;;;-4.12;92.89;101111.23;1454965;88;21851;-89
2022/12/21 06:56:45;;;;;;;104.38;49.40;;;;;;;-3.98;93.00;101116.52;1475864;88;21318;-90
2022/12/21 06:59:13;;;;;;;125.80;64.05;;;;;;;-3.90;93.00;101103.80;1474417;88;22390;-90
2022/12/21 07:01:39;;;;;;;134.72;61.25;;;;;;;-3.74;93.44;101110.73;1479346;88;21355;-92
2022/12/21 07:08:06;;;;;;;152.10;70.05;;;;;;;-3.39;93.75;101115.41;1472257;88;21422;-91
2022/12/21 07:10:33;;;;;;;169.50;79.92;;;;;;;-3.12;94.12;101102.57;1459630;88;21636;-90
2022/12/21 07:12:59;;;;;;;157.88;82.15;;;;;;;-2.93;94.36;101106.75;1476039;88;22288;-91
2022/12/21 07:15:25;;;;;;;182.70;91.40;;;;;;;-2.81;94.29;101104.66;1475281;88;21391;-88
2022/12/21 07:17:52;;;;;;;201.05;98.85;;;;;;;-2.68;94.20;101096.52;1473533;88;21311;-90
2022/12/21 07:20:18;;;;;;;200.35;99.20;;;;;;;-2.60;93.97;101091.95;1448968;88;21333;-91
2022/12/21 07:22:44;;;;;;;194.02;98.07;;;;;;;-2.54;93.86;101089.16;1476115;88;22184;-92
2022/12/21 07:25:10;;;;;;;207.30;104.45;;;;;;;-2.51;94.00;101087.31;1467487;88;21445;-93
2022/12/21 07:27:36;;;;;;;215.30;109.03;;;;;;;-2.43;93.83;101084.48;1467385;88;21370;-91
2022/12/21 07:30:02;;;;;;;235.72;107.35;;;;;;;-2.36;94.03;101077.35;1472955;88;21499;-91
2022/12/21 07:32:28;;;;;;;239.93;108.75;;;;;;;-2.32;94.20;101082.40;1476569;88;21311;-92
2022/12/21 07:35:04;;;;;;;207.03;96.60;;;;;;;-2.24;94.03;101079.99;1479744;88;21937;-90
2022/12/21 07:37:30;;;;;;;155.50;74.17;;;;;;;-2.16;93.97;101080.14;1468501;88;21423;-90
2022/12/21 07:39:57;;;;;;;152.95;71.82;;;;;;;-2.06;93.80;101088.48;1479390;88;22347;-91
2022/12/21 07:42:24;;;;;;;145.62;67.45;;;;;;;-1.96;93.72;101092.45;1469797;88;21289;-91
2022/12/21 07:48:52;;;;;;;125.02;64.87;;;;;;;-1.79;93.42;101089.73;1469417;88;22538;-91
2022/12/21 07:51:19;;;;;;;118.90;62.70;;;;;;;-1.61;93.49;101093.86;1479806;88;21363;-91
2022/12/21 07:53:46;;;;;;;135.10;62.62;;;;;;;-1.52;93.18;101090.55;1483423;88;22354;-92
2022/12/21 07:56:16;;;;;;;119.50;63.85;;;;;;;-1.47;92.77;101086.85;1473203;88;22212;-92
2022/12/21 07:58:44;;;;;;;119.05;63.55;;;;;;;-1.41;92.64;101078.88;1470931;88;22302;-90
2022/12/21 08:01:14;;;;;;;131.50;66.37;;;;;;;-1.34;92.49;101081.24;1477813;88;21288;-89
2022/12/21 08:03:42;;;;;;;116.97;62.53;;;;;;;-1.28;92.62;101078.41;1479463;88;21370;-91
2022/12/21 08:06:09;;;;;;;130.20;68.15;;;;;;;-1.19;92.49;101078.91;1476326;88;22234;-92
2022/12/21 08:08:36;;;;;;;119.15;64.80;;;;;;;-1.11;92.43;101081.23;1470314;88;21544;-90
2022/12/21 08:11:02;;;;;;;128.50;64.13;;;;;;;-1.03;92.41;101079.20;1474970;88;21518;-92
2022/12/21 08:13:29;;;;;;;107.52;60.17;;;;;;;-0.97;91.97;101082.02;1478711;88;22118;-92
2022/12/21 08:16:05;;;;;;;100.45;53.35;;;;;;;-0.93;91.64;101084.43;1480842;88;21363;-90
2022/12/21 08:18:32;;;;;;;100.43;53.70;;;;;;;-0.85;91.64;101083.31;1468604;88;21488;-88
2022/12/21 08:20:59;;;;;;;98.53;51.60;;;;;;;-0.79;91.47;101080.02;1475129;88;21632;-91
2022/12/21 08:23:25;;;;;;;107.83;57.67;;;;;;;-0.71;91.38;101078.42;1471998;88;22561;-88
2022/12/21 08:25:52;;;;;;;125.83;62.53;;;;;;;-0.69;90.84;101080.52;1483918;88;21554;-91
2022/12/21 08:28:19;;;;;;;110.70;59.20;;;;;;;-0.64;90.63;101079.02;1472562;88;22427;-92
2022/12/21 08:30:45;;;;;;;105.53;60.63;;;;;;;-0.61;90.40;101081.04;1477024;88;21597;-93
2022/12/21 08:33:11;;;;;;;119.33;61.57;;;;;;;-0.55;90.67;101072.16;1454919;88;21632;-93
2022/12/21 08:35:37;;;;;;;117.73;63.77;;;;;;;-0.47;90.58;101070.09;1457628;88;22535;-92
2022/12/21 08:38:03;;;;;;;152.50;81.07;;;;;;;-0.40;90.67;101062.89;1474569;88;21615;-92
2022/12/21 08:40:31;;;;;;;273.43;122.03;;;;;;;-0.30;90.76;101059.02;1464031;88;22075;-88
2022/12/21 08:42:58;;;;;;;168.53;82.70;;;;;;;-0.19;90.85;101067.23;1476092;88;21558;-91
2022/12/21 08:45:24;;;;;;;117.77;66.83;;;;;;;-0.07;90.68;101060.20;1460951;88;21579;-90
2022/12/21 08:47:50;;;;;;;134.90;71.83;;;;;;;0.00;89.93;101054.31;1454824;88;22946;-90
2022/12/21 08:50:17;;;;;;;121.50;65.57;;;;;;;0.07;89.44;101057.49;1476598;88;21512;-93
2022/12/21 08:52:43;;;;;;;109.83;57.90;;;;;;;0.04;87.46;101055.02;1476216;88;21594;-93
2022/12/21 08:55:09;;;;;;;103.53;55.77;;;;;;;0.06;87.93;101049.27;1468014;88;21636;-93
2022/12/21 08:57:35;;;;;;;97.67;54.07;;;;;;;0.12;88.79;101043.83;1481296;88;22863;-91
2022/12/21 09:00:04;;;;;;;159.17;88.70;;;;;;;0.19;88.22;101037.44;1474077;88;21419;-93
2022/12/21 09:02:30;;;;;;;112.53;62.70;;;;;;;0.23;87.76;101038.98;1473031;88;21956;-91
2022/12/21 09:04:56;;;;;;;97.17;54.07;;;;;;;0.29;88.11;101024.42;1476817;88;21406;-91
2022/12/21 09:07:22;;;;;;;95.50;52.63;;;;;;;0.34;87.61;101026.34;1478375;88;21593;-92
2022/12/21 09:09:49;;;;;;;90.73;52.57;;;;;;;0.42;88.09;101022.10;1472603;88;22577;-93
2022/12/21 09:12:15;;;;;;;85.03;49.87;;;;;;;0.51;88.34;101022.98;1480126;88;21563;-93
2022/12/21 09:14:41;;;;;;;132.23;70.07;;;;;;;0.59;87.97;101016.14;1453875;88;21523;-92
2022/12/21 09:17:07;;;;;;;126.43;68.60;;;;;;;0.69;87.86;101014.80;1473106;88;22344;-92
2022/12/21 09:19:33;;;;;;;115.77;60.70;;;;;;;0.69;87.86;101014.80;1472853;88;22876;-90
2022/12/21 09:21:59;;;;;;;102.13;52.90;;;;;;;0.79;87.69;101011.33;1477026;88;21603;-92
2022/12/21 09:24:25;;;;;;;97.83;55.83;;;;;;;0.83;87.27;101015.47;1478155;88;21661;-93
2022/12/21 09:26:52;;;;;;;101.07;57.17;;;;;;;0.86;86.78;101009.68;1473031;88;21553;-89
2022/12/21 09:29:22;;;;;;;93.23;51.80;;;;;;;0.90;86.42;101012.98;1478149;88;21656;-89
2022/12/21 09:31:47;;;;;;;89.93;50.77;;;;;;;0.92;86.42;101008.98;1476887;88;21697;-93
2022/12/21 09:34:13;;;;;;;88.00;48.77;;;;;;;0.93;85.84;101006.78;1476535;88;21584;-92
2022/12/21 09:36:40;;;;;;;80.43;47.03;;;;;;;0.92;85.69;100998.56;1472401;88;21632;-93
2022/12/21 09:39:06;;;;;;;93.07;51.30;;;;;;;0.94;85.70;100994.13;1475898;88;21609;-91
2022/12/21 09:41:58;;;;;;;95.23;52.23;;;;;;;0.94;85.97;101003.25;1474162;88;21527;-91
2022/12/21 09:44:53;;;;;;;92.73;53.20;;;;;;;0.98;86.33;100996.96;1463813;88;21606;-92
2022/12/21 09:47:28;;;;;;;87.33;50.93;;;;;;;1.04;86.48;101001.91;1465690;88;21509;-92
2022/12/21 09:50:06;;;;;;;82.43;46.10;;;;;;;1.05;85.72;100998.38;1472873;88;21589;-90
2022/12/21 09:52:39;;;;;;;99.03;55.50;;;;;;;1.06;85.70;100998.75;1470434;88;21752;-93
2022/12/21 09:55:22;;;;;;;152.10;73.83;;;;;;;1.06;85.73;100996.14;1468918;88;21927;-92
2022/12/21 09:57:54;;;;;;;118.00;63.07;;;;;;;1.07;85.55;100994.78;1476383;88;21586;-92
2022/12/21 10:00:30;;;;;;;102.30;56.23;;;;;;;1.12;85.89;100989.33;1470909;88;22476;-86
2022/12/21 10:03:15;;;;;;;96.77;53.60;;;;;;;1.13;85.29;100981.92;1475716;88;21953;-92
2022/12/21 10:05:53;;;;;;;106.40;55.63;;;;;;;1.15;85.24;100986.58;1472340;88;22359;-93
2022/12/21 10:08:46;;;;;;;90.33;50.87;;;;;;;1.15;85.07;100979.22;1435122;91;21700;-90
2022/12/21 10:11:47;;;;;;;84.80;45.63;;;;;;;1.16;85.20;100977.86;1437456;91;21536;-90
2022/12/21 10:14:25;;;;;;;84.67;46.95;;;;;;;1.17;85.39;100974.31;1436388;91;21707;-92
2022/12/21 10:17:05;;;;;;;85.43;48.63;;;;;;;1.17;84.95;100979.53;1435631;90;21522;-91
2022/12/21 10:19:42;;;;;;;93.03;51.07;;;;;;;1.17;84.80;100982.14;1435352;91;21697;-91
2022/12/21 10:22:16;;;;;;;90.60;51.73;;;;;;;1.16;84.21;100976.55;1442001;91;22823;-89
2022/12/21 10:24:53;;;;;;;87.40;50.23;;;;;;;1.16;84.37;100973.95;1430734;91;22521;-93
2022/12/21 10:27:46;;;;;;;87.83;50.67;;;;;;;1.17;84.14;100966.50;1436933;91;21837;-91
2022/12/21 10:30:14;;;;;;;93.40;52.27;;;;;;;1.17;84.45;100971.71;1437029;91;21689;-91
2022/12/21 10:32:46;;;;;;;91.80;50.23;;;;;;;1.22;84.83;100972.34;1436637;90;21870;-89
2022/12/21 10:35:35;;;;;;;85.70;50.25;;;;;;;1.23;84.35;100954.46;1435990;91;21652;-90
2022/12/21 10:38:03;;;;;;;111.20;61.57;;;;;;;1.24;84.12;100958.78;1435660;91;21742;-90
2022/12/21 10:40:32;;;;;;;108.10;60.17;;;;;;;1.28;84.40;100952.95;1440335;91;21735;-92
2022/12/21 10:42:59;;;;;;;103.87;54.93;;;;;;;1.29;84.00;100952.85;1433927;91;21586;-92
2022/12/21 10:45:26;;;;;;;102.57;56.73;;;;;;;1.31;84.02;100956.23;1452672;88;21698;-91
2022/12/21 10:47:53;;;;;;;106.67;54.03;;;;;;;1.32;83.52;100962.29;1469839;88;21781;-92
2022/12/21 10:50:36;;;;;;;88.57;49.10;;;;;;;1.28;82.72;100951.17;1475336;88;22625;-93
2022/12/21 10:53:25;;;;;;;99.17;55.47;;;;;;;1.20;82.57;100945.48;1470717;88;21651;-92
2022/12/21 10:55:55;;;;;;;77.33;44.00;;;;;;;1.18;83.25;100955.60;1471767;88;21667;-89
2022/12/21 10:58:29;;;;;;;78.97;44.67;;;;;;;1.12;83.51;100952.83;1476211;88;21589;-90
2022/12/21 11:01:18;;;;;;;79.57;43.63;;;;;;;1.08;83.87;100951.30;1474355;88;21549;-92
2022/12/21 11:03:47;;;;;;;81.53;46.80;;;;;;;0.93;84.79;100948.14;1473725;88;22628;-90
2022/12/21 11:06:17;;;;;;;86.90;47.30;;;;;;;0.86;85.37;100952.34;1472742;88;21823;-94
2022/12/21 11:08:50;;;;;;;91.50;48.23;;;;;;;0.89;85.48;100949.59;1460959;88;21573;-90
2022/12/21 11:11:37;;;;;;;86.60;50.47;;;;;;;0.86;85.08;100947.13;1468709;88;21735;-92
2022/12/21 11:14:14;;;;;;;83.80;46.70;;;;;;;0.88;85.43;100949.19;1477921;88;21847;-91
2022/12/21 11:16:41;;;;;;;90.43;51.17;;;;;;;0.87;85.46;100936.25;1476971;88;21698;-92
2022/12/21 11:19:14;;;;;;;87.87;51.90;;;;;;;0.87;85.49;100928.42;1474485;88;22537;-91
2022/12/21 11:21:53;;;;;;;92.67;50.70;;;;;;;0.91;85.89;100929.95;1452094;88;21647;-93
2022/12/21 11:24:36;;;;;;;89.37;50.93;;;;;;;0.95;85.54;100922.39;1470986;88;21637;-91
2022/12/21 11:27:13;;;;;;;102.40;57.60;;;;;;;0.96;85.06;100927.98;1470438;88;21866;-92
2022/12/21 11:29:49;;;;;;;96.23;53.90;;;;;;;0.99;85.43;100920.01;1477026;88;22382;-90
2022/12/21 11:32:17;;;;;;;97.93;52.13;;;;;;;0.98;85.17;100919.64;1475977;88;21679;-86
2022/12/21 11:34:51;;;;;;;100.07;53.70;;;;;;;0.94;84.83;100915.47;1473549;88;21542;-86
2022/12/21 11:37:42;;;;;;;104.67;57.17;;;;;;;0.98;85.38;100917.03;1478485;88;21740;-90
2022/12/21 11:40:17;;;;;;;95.95;53.87;;;;;;;1.01;85.35;100913.44;1478006;88;21922;-87
2022/12/21 11:43:03;;;;;;;108.10;55.83;;;;;;;0.99;85.23;100914.80;1468596;88;22161;-89
2022/12/21 11:45:53;;;;;;;103.83;55.83;;;;;;;1.02;85.12;100907.29;1473942;88;22518;-89
2022/12/21 11:48:48;;;;;;;100.50;56.60;;;;;;;0.98;84.59;100903.12;1472237;88;21660;-90
2022/12/21 11:51:50;;;;;;;96.10;51.27;;;;;;;0.97;85.16;100900.15;1472318;88;21619;-89
2022/12/21 11:54:49;;;;;;;;;;;;;;;0.95;85.61;100900.67;1478497;88;21817;-89